TOURFACTS.DK  
Stats and Facts from Tour de France.

Tour de France 2019 starts in 348 days
  Riders   Stages   Teams   Summits   Yearly  


 
Search by year

After 2018 - Stage 14:
 15000 starters.
  5163 different riders.
  639 teams.
  2246 stages.
  456 restdays.
  441957.60 km.
  5678 abandonnees.


Top 3
GC
Christopher Froome86:20:55
Rigoberto Urán86:21:49
Romain Bardet86:23:15
Climb
Warren Barguil169 pt.
Primoz Roglic80 pt.
Thomas De Gendt64 pt.
Sprint
Michael Matthews359 pt.
André Greipel234 pt.
Edvald Boasson Hagen220 pt.
Youth
Simon Yates86:27:09
Louis Meintjes86:29:15
Emanuel Buchmann86:54:16
Facts from Tour de France 1935
  |   Stages.  |   Stage winners.  |   Days in yellow  |   Average speed.  |   Route.  |   Teams.  |   All riders.  |   Rookies.  |  

  |   Withdrawls.  |   GC.  |   Polka  |   Green  |   White  |   Summits. (In tour)  |   Miscellaneous.  |  

Stage 10 on July 14th. 1935
         Owning:    Romain Maes    
Pick a stage:  1 2 3 4 5a 5b 6 7 8 9 10 11 12 13a 13b 14a 14b 15 16 17 18a 18b 19a 19b 20a 20b 21
From: Digne-les-Bains    To: NiceDist:156.00 km.

Average speed for all riders in stage:  34,176 km./hr.
    Place:Name:Team:Time:Km/h:
BELJean AertsBELBelgium04:22:35  +  00:00:00=35,646 
FRARoger LapebieFRAFrance B04:22:35  +  00:00:00=35,646 
FRAGabriel RuozziTouristes Routiers04:22:35  +  00:00:00=35,646 
4 FRARené Le GrevesFRAFrance04:22:35  +  00:00:00=35,646 
5 FRARené ViettoFRAFrance04:22:35  +  00:00:00=35,646 
6 FRAGeorges SpeicherFRAFrance04:22:45  +  00:00:10=35,623 
7 ITAAmbrogio MorelliITACadetti Italiens04:25:03  +  00:02:28=35,314 
8 FRACharles PelissierFRAFrance B04:25:03  +  00:02:28=35,314 
9 ITAOrlando TeaniITACadetti Italiens04:25:03  +  00:02:28=35,314 
10 BELRomain MaesBELBelgium04:25:03  +  00:02:28=35,314 
11 ITAFrancesco CamussoITAItaly04:25:03  +  00:02:28=35,314 
12 FRAPierre-Marie CloarecTouristes Routiers04:26:38  +  00:04:03=35,104 
13 ITAAldo BertoccoTouristes Routiers04:26:47  +  00:04:12=35,085 
14 FRAJean FontenayFRAFrance B04:26:47  +  00:04:12=35,085 
15 ITAPietro RimoldiITACadetti Italiens04:26:47  +  00:04:12=35,085 
16 FRALouis ThiétardTouristes Routiers04:26:47  +  00:04:12=35,085 
17 SUIFritz HartmannCHESwitzerland04:26:47  +  00:04:12=35,085 
18 GERGeorg UmbenhauerDEUGermany04:26:47  +  00:04:12=35,085 
19 FRAPierre CoganTouristes Routiers04:26:47  +  00:04:12=35,085 
20 SUIKurt StettlerCHESwitzerland04:26:47  +  00:04:12=35,085 
21 FRARené BernardTouristes Routiers04:26:47  +  00:04:12=35,085 
22 BELJules LowieBELBelgium B04:26:47  +  00:04:12=35,085 
23 FRAMaurice ArchambaudFRAFrance04:26:47  +  00:04:12=35,085 
24 FRAFernand FayolleTouristes Routiers04:26:47  +  00:04:12=35,085 
25 GEROskar ThierbachDEUGermany04:28:12  +  00:05:37=34,899 
26 GEROtto WeckerlingDEUGermany04:28:42  +  00:06:07=34,834 
27 BELFélicien VervaeckeBELBelgium04:28:42  +  00:06:07=34,834 
28 BELSylvère MaesBELBelgium B04:30:24  +  00:07:49=34,615 
29 FRACharles BertyTouristes Routiers04:31:32  +  00:08:57=34,471 
30 ESPAntonio PriorESPSpain04:31:32  +  00:08:57=34,471 
31 ITAVasco BergamaschiITAItaly04:33:39  +  00:11:04=34,204 
32 GERFerdinand IckesDEUGermany B04:34:28  +  00:11:53=34,103 
33 GERBruno RothDEUGermany B04:34:28  +  00:11:53=34,103 
34 BELAntoine DignefBELBelgium B04:34:28  +  00:11:53=34,103 
35 BELLouis HardiquestBELBelgium04:34:28  +  00:11:53=34,103 
36 FRAJoseph MauclairTouristes Routiers04:34:28  +  00:11:53=34,103 
37 FRAJules MervielFRAFrance04:34:28  +  00:11:53=34,103 
38 GERGeorg StachDEUGermany B04:36:23  +  00:13:48=33,866 
39 GERGeorge HaendelDEUGermany B04:36:23  +  00:13:48=33,866 
40 FRAGeorges LachatTouristes Routiers04:36:23  +  00:13:48=33,866 
41 ITADante GianelloTouristes Routiers04:36:48  +  00:14:13=33,815 
42 ITAOreste BernardoniTouristes Routiers04:36:48  +  00:14:13=33,815 
43 GERWilly KutschbachDEUGermany04:36:48  +  00:14:13=33,815 
44 FRAAndré LeducqFRAFrance04:36:48  +  00:14:13=33,815 
45 FRAJulien MoineauFRAFrance B04:39:36  +  00:17:01=33,476 
46 ESPManuel GarciaTouristes Routiers04:39:36  +  00:17:01=33,476 
47 FRAGeorges HubatzTouristes Routiers04:43:21  +  00:20:46=33,033 
48 FRAHonore GranierTouristes Routiers04:45:08  +  00:22:33=32,827 
49 FRAClément BistagneTouristes Routiers04:45:08  +  00:22:33=32,827 
50 FRAPaul ChocqueTouristes Routiers04:45:08  +  00:22:33=32,827 
51 FRABenoit FaureTouristes Routiers04:47:47  +  00:25:12=32,524 
52 ITALuigi GiacobbeITAItaly04:47:47  +  00:25:12=32,524 
53 ITARafaële Di PacoITAItaly04:47:47  +  00:25:12=32,524 
54 ESPSalvador CardonaESPSpain04:47:47  +  00:25:12=32,524 
55 ESPVicente BacheroESPSpain B04:48:22  +  00:25:47=32,459 
56 SUILéo AmbergCHESwitzerland04:57:14  +  00:34:39=31,490 
57 ESPThéodore LadronTouristes Routiers04:57:17  +  00:34:42=31,485 
58 ESPEmiliano AlvarezESPSpain05:08:05  +  00:45:30=30,381 


Todays birthdays.

1877  Antoine Perrichon
1878  Auguste Berthault
1911  Théo Herckenrath
1924  Carlo Lafranchi
1931  Armand Di Caro
1937  Jean-Claude Lebaube
1951  Giovanni Battaglin
1961  Pascal Jules
1962  Jean-Claude Leclercq
1976  Janek Tombak
1978  Francisco Pérez
1983  Dries Devenyns




Visits: